sensor_id;sensor_type;location;lat;lon;timestamp;temperature;humidity
12841;DHT22;6487;48.626;12.486;2024-02-04T00:00:05;7.40;99.90
12841;DHT22;6487;48.626;12.486;2024-02-04T00:02:34;7.30;99.90
12841;DHT22;6487;48.626;12.486;2024-02-04T00:05:04;7.30;99.90
12841;DHT22;6487;48.626;12.486;2024-02-04T00:07:33;7.30;99.90
12841;DHT22;6487;48.626;12.486;2024-02-04T00:10:01;7.30;99.90
12841;DHT22;6487;48.626;12.486;2024-02-04T00:12:30;7.30;99.90
12841;DHT22;6487;48.626;12.486;2024-02-04T00:14:58;7.30;99.90
12841;DHT22;6487;48.626;12.486;2024-02-04T00:17:27;7.30;99.90
12841;DHT22;6487;48.626;12.486;2024-02-04T00:19:58;7.20;99.90
12841;DHT22;6487;48.626;12.486;2024-02-04T00:22:28;7.20;99.90
12841;DHT22;6487;48.626;12.486;2024-02-04T00:24:56;7.20;99.90
12841;DHT22;6487;48.626;12.486;2024-02-04T00:27:32;7.30;99.90
12841;DHT22;6487;48.626;12.486;2024-02-04T00:30:01;7.30;99.90
12841;DHT22;6487;48.626;12.486;2024-02-04T00:32:29;7.30;99.90
12841;DHT22;6487;48.626;12.486;2024-02-04T00:34:58;7.40;99.90
12841;DHT22;6487;48.626;12.486;2024-02-04T00:37:28;7.30;99.90
12841;DHT22;6487;48.626;12.486;2024-02-04T00:39:56;7.20;99.90
12841;DHT22;6487;48.626;12.486;2024-02-04T00:42:24;7.20;99.90
12841;DHT22;6487;48.626;12.486;2024-02-04T00:44:53;7.20;99.90
12841;DHT22;6487;48.626;12.486;2024-02-04T00:47:21;7.20;99.90
12841;DHT22;6487;48.626;12.486;2024-02-04T00:49:52;7.30;99.90
12841;DHT22;6487;48.626;12.486;2024-02-04T00:52:21;7.20;99.90
12841;DHT22;6487;48.626;12.486;2024-02-04T00:54:51;7.30;99.90
12841;DHT22;6487;48.626;12.486;2024-02-04T00:57:19;7.30;99.90
12841;DHT22;6487;48.626;12.486;2024-02-04T00:59:48;7.40;99.90
12841;DHT22;6487;48.626;12.486;2024-02-04T01:02:17;7.30;99.90
12841;DHT22;6487;48.626;12.486;2024-02-04T01:04:45;7.30;99.90
12841;DHT22;6487;48.626;12.486;2024-02-04T01:07:15;7.30;99.90
12841;DHT22;6487;48.626;12.486;2024-02-04T01:09:43;7.40;99.90
12841;DHT22;6487;48.626;12.486;2024-02-04T01:12:13;7.30;99.90
12841;DHT22;6487;48.626;12.486;2024-02-04T01:14:42;7.40;99.90
12841;DHT22;6487;48.626;12.486;2024-02-04T01:17:11;7.40;99.90
12841;DHT22;6487;48.626;12.486;2024-02-04T01:19:39;7.50;99.90
12841;DHT22;6487;48.626;12.486;2024-02-04T01:22:08;7.50;99.90
12841;DHT22;6487;48.626;12.486;2024-02-04T01:24:36;7.40;99.90
12841;DHT22;6487;48.626;12.486;2024-02-04T01:27:05;7.50;99.90
12841;DHT22;6487;48.626;12.486;2024-02-04T01:29:36;7.60;99.90
12841;DHT22;6487;48.626;12.486;2024-02-04T01:32:04;7.60;99.90
12841;DHT22;6487;48.626;12.486;2024-02-04T01:34:33;7.60;99.90
12841;DHT22;6487;48.626;12.486;2024-02-04T01:37:02;7.50;99.90
12841;DHT22;6487;48.626;12.486;2024-02-04T01:39:31;7.50;99.90
12841;DHT22;6487;48.626;12.486;2024-02-04T01:41:59;7.50;99.90
12841;DHT22;6487;48.626;12.486;2024-02-04T01:44:31;7.50;99.90
12841;DHT22;6487;48.626;12.486;2024-02-04T01:47:01;7.50;99.90
12841;DHT22;6487;48.626;12.486;2024-02-04T01:49:30;7.60;99.90
12841;DHT22;6487;48.626;12.486;2024-02-04T01:51:58;7.60;99.90
12841;DHT22;6487;48.626;12.486;2024-02-04T01:54:31;7.60;99.90
12841;DHT22;6487;48.626;12.486;2024-02-04T01:57:00;7.50;99.90
12841;DHT22;6487;48.626;12.486;2024-02-04T01:59:29;7.40;99.90
12841;DHT22;6487;48.626;12.486;2024-02-04T02:02:01;7.40;99.90
12841;DHT22;6487;48.626;12.486;2024-02-04T02:04:29;7.40;99.90
12841;DHT22;6487;48.626;12.486;2024-02-04T02:06:58;7.50;99.90
12841;DHT22;6487;48.626;12.486;2024-02-04T02:09:27;7.50;99.90
12841;DHT22;6487;48.626;12.486;2024-02-04T02:12:01;7.50;99.90
12841;DHT22;6487;48.626;12.486;2024-02-04T02:14:37;7.30;99.90
12841;DHT22;6487;48.626;12.486;2024-02-04T02:17:14;7.40;99.90
12841;DHT22;6487;48.626;12.486;2024-02-04T02:19:50;7.50;99.90
12841;DHT22;6487;48.626;12.486;2024-02-04T02:22:28;7.50;99.90
12841;DHT22;6487;48.626;12.486;2024-02-04T02:24:59;7.50;99.90
12841;DHT22;6487;48.626;12.486;2024-02-04T02:27:29;7.50;99.90
12841;DHT22;6487;48.626;12.486;2024-02-04T02:29:57;7.40;99.90
12841;DHT22;6487;48.626;12.486;2024-02-04T02:32:25;7.50;99.90
12841;DHT22;6487;48.626;12.486;2024-02-04T02:34:54;7.30;99.90
12841;DHT22;6487;48.626;12.486;2024-02-04T02:37:29;7.40;99.90
12841;DHT22;6487;48.626;12.486;2024-02-04T02:40:07;7.50;99.90
12841;DHT22;6487;48.626;12.486;2024-02-04T02:42:39;7.50;99.90
12841;DHT22;6487;48.626;12.486;2024-02-04T02:45:11;7.50;99.90
12841;DHT22;6487;48.626;12.486;2024-02-04T02:47:40;7.50;99.90
12841;DHT22;6487;48.626;12.486;2024-02-04T02:50:09;7.60;99.90
12841;DHT22;6487;48.626;12.486;2024-02-04T02:52:38;7.50;99.90
12841;DHT22;6487;48.626;12.486;2024-02-04T02:55:08;7.60;99.90
12841;DHT22;6487;48.626;12.486;2024-02-04T02:57:36;7.60;99.90
12841;DHT22;6487;48.626;12.486;2024-02-04T03:00:06;7.60;99.90
12841;DHT22;6487;48.626;12.486;2024-02-04T03:02:35;7.60;99.90
12841;DHT22;6487;48.626;12.486;2024-02-04T03:05:04;7.60;99.90
12841;DHT22;6487;48.626;12.486;2024-02-04T03:07:33;7.60;99.90
12841;DHT22;6487;48.626;12.486;2024-02-04T03:10:01;7.40;99.90
12841;DHT22;6487;48.626;12.486;2024-02-04T03:12:32;7.40;99.90
12841;DHT22;6487;48.626;12.486;2024-02-04T03:15:03;7.40;99.90
12841;DHT22;6487;48.626;12.486;2024-02-04T03:17:33;7.40;99.90
12841;DHT22;6487;48.626;12.486;2024-02-04T03:20:01;7.50;99.90
12841;DHT22;6487;48.626;12.486;2024-02-04T03:22:30;7.50;99.90
12841;DHT22;6487;48.626;12.486;2024-02-04T03:24:59;7.50;99.90
12841;DHT22;6487;48.626;12.486;2024-02-04T03:27:27;7.50;99.90
12841;DHT22;6487;48.626;12.486;2024-02-04T03:29:57;7.50;99.90
12841;DHT22;6487;48.626;12.486;2024-02-04T03:32:25;7.40;99.90
12841;DHT22;6487;48.626;12.486;2024-02-04T03:34:56;7.50;99.90
12841;DHT22;6487;48.626;12.486;2024-02-04T03:37:24;7.40;99.90
12841;DHT22;6487;48.626;12.486;2024-02-04T03:39:52;7.40;99.90
12841;DHT22;6487;48.626;12.486;2024-02-04T03:42:21;7.50;99.90
12841;DHT22;6487;48.626;12.486;2024-02-04T03:44:49;7.60;99.90
12841;DHT22;6487;48.626;12.486;2024-02-04T03:47:20;7.50;99.90
12841;DHT22;6487;48.626;12.486;2024-02-04T03:49:48;7.40;99.90
12841;DHT22;6487;48.626;12.486;2024-02-04T03:52:17;7.30;99.90
12841;DHT22;6487;48.626;12.486;2024-02-04T03:54:45;7.20;99.90
12841;DHT22;6487;48.626;12.486;2024-02-04T03:57:14;7.30;99.90
12841;DHT22;6487;48.626;12.486;2024-02-04T03:59:44;7.20;99.90
12841;DHT22;6487;48.626;12.486;2024-02-04T04:02:14;7.20;99.90
12841;DHT22;6487;48.626;12.486;2024-02-04T04:04:43;7.30;99.90
12841;DHT22;6487;48.626;12.486;2024-02-04T04:07:15;7.20;99.90
12841;DHT22;6487;48.626;12.486;2024-02-04T04:09:43;7.20;99.90
12841;DHT22;6487;48.626;12.486;2024-02-04T04:12:11;7.30;99.90
12841;DHT22;6487;48.626;12.486;2024-02-04T04:14:40;7.20;99.90
12841;DHT22;6487;48.626;12.486;2024-02-04T04:17:08;7.10;99.90
12841;DHT22;6487;48.626;12.486;2024-02-04T04:19:36;7.20;99.90
12841;DHT22;6487;48.626;12.486;2024-02-04T04:22:08;7.20;99.90
12841;DHT22;6487;48.626;12.486;2024-02-04T04:24:38;7.20;99.90
12841;DHT22;6487;48.626;12.486;2024-02-04T04:27:06;7.20;99.90
12841;DHT22;6487;48.626;12.486;2024-02-04T04:29:35;7.20;99.90
12841;DHT22;6487;48.626;12.486;2024-02-04T04:32:04;7.30;99.90
12841;DHT22;6487;48.626;12.486;2024-02-04T04:34:33;7.30;99.90
12841;DHT22;6487;48.626;12.486;2024-02-04T04:37:01;7.30;99.90
12841;DHT22;6487;48.626;12.486;2024-02-04T04:39:31;7.40;99.90
12841;DHT22;6487;48.626;12.486;2024-02-04T04:41:59;7.30;99.90
12841;DHT22;6487;48.626;12.486;2024-02-04T04:44:28;7.20;99.90
12841;DHT22;6487;48.626;12.486;2024-02-04T04:46:59;7.20;99.90
12841;DHT22;6487;48.626;12.486;2024-02-04T04:49:27;7.20;99.90
12841;DHT22;6487;48.626;12.486;2024-02-04T04:51:56;7.20;99.90
12841;DHT22;6487;48.626;12.486;2024-02-04T04:54:24;7.20;99.90
12841;DHT22;6487;48.626;12.486;2024-02-04T04:56:54;7.20;99.90
12841;DHT22;6487;48.626;12.486;2024-02-04T04:59:22;7.30;99.90
12841;DHT22;6487;48.626;12.486;2024-02-04T05:01:51;7.30;99.90
12841;DHT22;6487;48.626;12.486;2024-02-04T05:04:19;7.30;99.90
12841;DHT22;6487;48.626;12.486;2024-02-04T05:06:50;7.20;99.90
12841;DHT22;6487;48.626;12.486;2024-02-04T05:09:19;7.30;99.90
12841;DHT22;6487;48.626;12.486;2024-02-04T05:11:47;7.20;99.90
12841;DHT22;6487;48.626;12.486;2024-02-04T05:14:17;7.20;99.90
12841;DHT22;6487;48.626;12.486;2024-02-04T05:16:46;7.20;99.90
12841;DHT22;6487;48.626;12.486;2024-02-04T05:19:15;7.20;99.90
12841;DHT22;6487;48.626;12.486;2024-02-04T05:21:43;7.00;99.90
12841;DHT22;6487;48.626;12.486;2024-02-04T05:24:12;7.10;99.90
12841;DHT22;6487;48.626;12.486;2024-02-04T05:26:40;7.10;99.90
12841;DHT22;6487;48.626;12.486;2024-02-04T05:29:08;7.20;99.90
12841;DHT22;6487;48.626;12.486;2024-02-04T05:31:41;7.20;99.90
12841;DHT22;6487;48.626;12.486;2024-02-04T05:34:10;7.30;99.90
12841;DHT22;6487;48.626;12.486;2024-02-04T05:36:40;7.20;99.90
12841;DHT22;6487;48.626;12.486;2024-02-04T05:39:10;7.20;99.90
12841;DHT22;6487;48.626;12.486;2024-02-04T05:41:39;7.20;99.90
12841;DHT22;6487;48.626;12.486;2024-02-04T05:44:08;7.30;99.90
12841;DHT22;6487;48.626;12.486;2024-02-04T05:46:38;7.20;99.90
12841;DHT22;6487;48.626;12.486;2024-02-04T05:49:08;7.10;99.90
12841;DHT22;6487;48.626;12.486;2024-02-04T05:51:38;7.20;99.90
12841;DHT22;6487;48.626;12.486;2024-02-04T05:54:08;7.10;99.90
12841;DHT22;6487;48.626;12.486;2024-02-04T05:56:36;7.20;99.90
12841;DHT22;6487;48.626;12.486;2024-02-04T05:59:05;7.20;99.90
12841;DHT22;6487;48.626;12.486;2024-02-04T06:01:33;7.10;99.90
12841;DHT22;6487;48.626;12.486;2024-02-04T06:04:02;7.20;99.90
12841;DHT22;6487;48.626;12.486;2024-02-04T06:06:32;7.10;99.90
12841;DHT22;6487;48.626;12.486;2024-02-04T06:09:01;7.20;99.90
12841;DHT22;6487;48.626;12.486;2024-02-04T06:11:29;7.20;99.90
12841;DHT22;6487;48.626;12.486;2024-02-04T06:13:58;7.10;99.90
12841;DHT22;6487;48.626;12.486;2024-02-04T06:16:26;7.20;99.90
12841;DHT22;6487;48.626;12.486;2024-02-04T06:18:58;7.10;99.90
12841;DHT22;6487;48.626;12.486;2024-02-04T06:21:27;7.10;99.90
12841;DHT22;6487;48.626;12.486;2024-02-04T06:23:56;7.20;99.90
12841;DHT22;6487;48.626;12.486;2024-02-04T06:26:25;7.20;99.90
12841;DHT22;6487;48.626;12.486;2024-02-04T06:28:53;7.20;99.90
12841;DHT22;6487;48.626;12.486;2024-02-04T06:31:22;7.10;99.90
12841;DHT22;6487;48.626;12.486;2024-02-04T06:33:51;7.00;99.90
12841;DHT22;6487;48.626;12.486;2024-02-04T06:36:19;6.90;99.90
12841;DHT22;6487;48.626;12.486;2024-02-04T06:38:48;7.00;99.90
12841;DHT22;6487;48.626;12.486;2024-02-04T06:41:17;7.00;99.90
12841;DHT22;6487;48.626;12.486;2024-02-04T06:43:46;7.00;99.90
12841;DHT22;6487;48.626;12.486;2024-02-04T06:46:23;7.10;99.90
12841;DHT22;6487;48.626;12.486;2024-02-04T06:48:53;7.00;99.90
12841;DHT22;6487;48.626;12.486;2024-02-04T06:51:22;7.00;99.90
12841;DHT22;6487;48.626;12.486;2024-02-04T06:53:51;7.10;99.90
12841;DHT22;6487;48.626;12.486;2024-02-04T06:56:20;7.10;99.90
12841;DHT22;6487;48.626;12.486;2024-02-04T06:58:49;7.00;99.90
12841;DHT22;6487;48.626;12.486;2024-02-04T07:01:17;7.10;99.90
12841;DHT22;6487;48.626;12.486;2024-02-04T07:03:46;6.90;99.90
12841;DHT22;6487;48.626;12.486;2024-02-04T07:06:14;6.90;99.90
12841;DHT22;6487;48.626;12.486;2024-02-04T07:08:42;7.00;99.90
12841;DHT22;6487;48.626;12.486;2024-02-04T07:11:11;7.00;99.90
12841;DHT22;6487;48.626;12.486;2024-02-04T07:13:41;7.00;99.90
12841;DHT22;6487;48.626;12.486;2024-02-04T07:16:09;7.10;99.90
12841;DHT22;6487;48.626;12.486;2024-02-04T07:18:38;7.00;99.90
12841;DHT22;6487;48.626;12.486;2024-02-04T07:21:06;7.10;99.90
12841;DHT22;6487;48.626;12.486;2024-02-04T07:23:35;7.10;99.90
12841;DHT22;6487;48.626;12.486;2024-02-04T07:26:03;7.10;99.90
12841;DHT22;6487;48.626;12.486;2024-02-04T07:28:32;7.10;99.90
12841;DHT22;6487;48.626;12.486;2024-02-04T07:31:02;7.10;99.90
12841;DHT22;6487;48.626;12.486;2024-02-04T07:33:31;7.00;99.90
12841;DHT22;6487;48.626;12.486;2024-02-04T07:36:00;7.10;99.90
12841;DHT22;6487;48.626;12.486;2024-02-04T07:38:28;7.10;99.90
12841;DHT22;6487;48.626;12.486;2024-02-04T07:40:56;7.20;99.90
12841;DHT22;6487;48.626;12.486;2024-02-04T07:43:26;7.10;99.90
12841;DHT22;6487;48.626;12.486;2024-02-04T07:45:54;7.10;99.90
12841;DHT22;6487;48.626;12.486;2024-02-04T07:48:31;7.20;99.90
12841;DHT22;6487;48.626;12.486;2024-02-04T07:51:00;7.20;99.90
12841;DHT22;6487;48.626;12.486;2024-02-04T07:53:29;7.20;99.90
12841;DHT22;6487;48.626;12.486;2024-02-04T07:55:57;7.20;99.90
12841;DHT22;6487;48.626;12.486;2024-02-04T07:58:26;7.00;99.90
12841;DHT22;6487;48.626;12.486;2024-02-04T08:00:55;7.20;99.90
12841;DHT22;6487;48.626;12.486;2024-02-04T08:03:23;7.20;99.90
12841;DHT22;6487;48.626;12.486;2024-02-04T08:05:53;7.30;99.90
12841;DHT22;6487;48.626;12.486;2024-02-04T08:08:22;7.30;99.90
12841;DHT22;6487;48.626;12.486;2024-02-04T08:10:50;7.30;99.90
12841;DHT22;6487;48.626;12.486;2024-02-04T08:13:19;7.30;99.90
12841;DHT22;6487;48.626;12.486;2024-02-04T08:15:47;7.40;99.90
12841;DHT22;6487;48.626;12.486;2024-02-04T08:18:19;7.30;99.90
12841;DHT22;6487;48.626;12.486;2024-02-04T08:20:47;7.40;99.90
12841;DHT22;6487;48.626;12.486;2024-02-04T08:23:17;7.30;99.90
12841;DHT22;6487;48.626;12.486;2024-02-04T08:25:46;7.30;99.90
12841;DHT22;6487;48.626;12.486;2024-02-04T08:28:14;7.30;99.90
12841;DHT22;6487;48.626;12.486;2024-02-04T08:30:43;7.30;99.90
12841;DHT22;6487;48.626;12.486;2024-02-04T08:33:12;7.40;99.90
12841;DHT22;6487;48.626;12.486;2024-02-04T08:35:40;7.50;99.90
12841;DHT22;6487;48.626;12.486;2024-02-04T08:38:12;7.50;99.90
12841;DHT22;6487;48.626;12.486;2024-02-04T08:40:42;7.50;99.90
12841;DHT22;6487;48.626;12.486;2024-02-04T08:43:10;7.50;99.90
12841;DHT22;6487;48.626;12.486;2024-02-04T08:45:39;7.50;99.90
12841;DHT22;6487;48.626;12.486;2024-02-04T08:48:07;7.60;99.90
12841;DHT22;6487;48.626;12.486;2024-02-04T08:50:36;7.50;99.90
12841;DHT22;6487;48.626;12.486;2024-02-04T08:53:07;7.50;99.90
12841;DHT22;6487;48.626;12.486;2024-02-04T08:55:37;7.60;99.90
12841;DHT22;6487;48.626;12.486;2024-02-04T08:58:06;7.60;99.90
12841;DHT22;6487;48.626;12.486;2024-02-04T09:00:38;7.70;99.90
12841;DHT22;6487;48.626;12.486;2024-02-04T09:03:10;7.60;99.90
12841;DHT22;6487;48.626;12.486;2024-02-04T09:05:41;7.70;99.90
12841;DHT22;6487;48.626;12.486;2024-02-04T09:08:10;7.70;99.90
12841;DHT22;6487;48.626;12.486;2024-02-04T09:10:38;7.80;99.90
12841;DHT22;6487;48.626;12.486;2024-02-04T09:13:08;7.80;99.90
12841;DHT22;6487;48.626;12.486;2024-02-04T09:15:43;7.90;99.90
12841;DHT22;6487;48.626;12.486;2024-02-04T09:18:11;7.90;99.90
12841;DHT22;6487;48.626;12.486;2024-02-04T09:20:40;7.90;99.90
12841;DHT22;6487;48.626;12.486;2024-02-04T09:23:09;7.90;99.90
12841;DHT22;6487;48.626;12.486;2024-02-04T09:25:38;7.80;99.90
12841;DHT22;6487;48.626;12.486;2024-02-04T09:28:08;7.90;99.90
12841;DHT22;6487;48.626;12.486;2024-02-04T09:30:37;8.00;99.90
12841;DHT22;6487;48.626;12.486;2024-02-04T09:33:05;8.10;99.90
12841;DHT22;6487;48.626;12.486;2024-02-04T09:35:35;8.10;99.90
12841;DHT22;6487;48.626;12.486;2024-02-04T09:38:04;8.20;99.90
12841;DHT22;6487;48.626;12.486;2024-02-04T09:40:38;8.10;99.90
12841;DHT22;6487;48.626;12.486;2024-02-04T09:43:08;8.20;99.90
12841;DHT22;6487;48.626;12.486;2024-02-04T09:45:38;8.30;99.90
12841;DHT22;6487;48.626;12.486;2024-02-04T09:48:08;8.30;99.90
12841;DHT22;6487;48.626;12.486;2024-02-04T09:50:41;8.30;99.90
12841;DHT22;6487;48.626;12.486;2024-02-04T09:53:11;8.40;99.90
12841;DHT22;6487;48.626;12.486;2024-02-04T09:55:43;8.30;99.90
12841;DHT22;6487;48.626;12.486;2024-02-04T09:58:14;8.30;99.90
12841;DHT22;6487;48.626;12.486;2024-02-04T10:00:44;8.40;99.90
12841;DHT22;6487;48.626;12.486;2024-02-04T10:03:15;8.50;99.90
12841;DHT22;6487;48.626;12.486;2024-02-04T10:05:44;8.40;99.90
12841;DHT22;6487;48.626;12.486;2024-02-04T10:08:13;8.50;99.90
12841;DHT22;6487;48.626;12.486;2024-02-04T10:10:47;8.50;99.90
12841;DHT22;6487;48.626;12.486;2024-02-04T10:13:18;8.50;99.90
12841;DHT22;6487;48.626;12.486;2024-02-04T10:15:47;8.60;99.90
12841;DHT22;6487;48.626;12.486;2024-02-04T10:18:17;8.70;99.90
12841;DHT22;6487;48.626;12.486;2024-02-04T10:20:45;8.70;99.90
12841;DHT22;6487;48.626;12.486;2024-02-04T10:23:14;8.80;99.90
12841;DHT22;6487;48.626;12.486;2024-02-04T10:25:43;8.90;99.90
12841;DHT22;6487;48.626;12.486;2024-02-04T10:28:12;8.90;99.90
12841;DHT22;6487;48.626;12.486;2024-02-04T10:30:44;9.00;99.90
12841;DHT22;6487;48.626;12.486;2024-02-04T10:33:12;9.00;99.90
12841;DHT22;6487;48.626;12.486;2024-02-04T10:35:42;9.10;99.90
12841;DHT22;6487;48.626;12.486;2024-02-04T10:38:11;9.00;99.90
12841;DHT22;6487;48.626;12.486;2024-02-04T10:40:40;9.00;99.90
12841;DHT22;6487;48.626;12.486;2024-02-04T10:43:09;9.10;99.90
12841;DHT22;6487;48.626;12.486;2024-02-04T10:45:39;9.20;99.90
12841;DHT22;6487;48.626;12.486;2024-02-04T10:48:15;9.30;99.90
12841;DHT22;6487;48.626;12.486;2024-02-04T10:50:45;9.20;99.90
12841;DHT22;6487;48.626;12.486;2024-02-04T10:53:15;9.20;99.90
12841;DHT22;6487;48.626;12.486;2024-02-04T10:55:46;9.20;99.90
12841;DHT22;6487;48.626;12.486;2024-02-04T10:58:15;9.30;99.90
12841;DHT22;6487;48.626;12.486;2024-02-04T11:00:46;9.30;99.90
12841;DHT22;6487;48.626;12.486;2024-02-04T11:03:15;9.40;99.90
12841;DHT22;6487;48.626;12.486;2024-02-04T11:05:50;9.20;99.90
12841;DHT22;6487;48.626;12.486;2024-02-04T11:08:19;9.30;99.90
12841;DHT22;6487;48.626;12.486;2024-02-04T11:10:48;9.30;99.90
12841;DHT22;6487;48.626;12.486;2024-02-04T11:13:17;9.20;99.90
12841;DHT22;6487;48.626;12.486;2024-02-04T11:15:47;9.10;99.90
12841;DHT22;6487;48.626;12.486;2024-02-04T11:22:14;9.00;99.90
12841;DHT22;6487;48.626;12.486;2024-02-04T11:24:59;8.90;99.90
12841;DHT22;6487;48.626;12.486;2024-02-04T11:27:36;9.10;99.90
12841;DHT22;6487;48.626;12.486;2024-02-04T11:30:05;9.10;99.90
12841;DHT22;6487;48.626;12.486;2024-02-04T11:32:36;9.30;99.90
12841;DHT22;6487;48.626;12.486;2024-02-04T11:35:06;9.20;99.90
12841;DHT22;6487;48.626;12.486;2024-02-04T11:37:36;9.10;99.90
12841;DHT22;6487;48.626;12.486;2024-02-04T11:40:05;9.20;99.90
12841;DHT22;6487;48.626;12.486;2024-02-04T11:42:34;9.30;99.90
12841;DHT22;6487;48.626;12.486;2024-02-04T11:45:07;9.20;99.90
12841;DHT22;6487;48.626;12.486;2024-02-04T11:47:37;9.10;99.90
12841;DHT22;6487;48.626;12.486;2024-02-04T11:50:07;9.00;99.90
12841;DHT22;6487;48.626;12.486;2024-02-04T11:52:39;9.10;99.90
12841;DHT22;6487;48.626;12.486;2024-02-04T11:55:13;9.10;99.90
12841;DHT22;6487;48.626;12.486;2024-02-04T11:57:43;9.00;99.90
12841;DHT22;6487;48.626;12.486;2024-02-04T12:00:11;9.10;99.90
12841;DHT22;6487;48.626;12.486;2024-02-04T12:02:42;9.20;99.90
12841;DHT22;6487;48.626;12.486;2024-02-04T12:05:11;9.10;99.90
12841;DHT22;6487;48.626;12.486;2024-02-04T12:07:41;9.00;99.90
12841;DHT22;6487;48.626;12.486;2024-02-04T12:10:11;9.20;99.90
12841;DHT22;6487;48.626;12.486;2024-02-04T12:12:40;9.20;99.90
12841;DHT22;6487;48.626;12.486;2024-02-04T12:15:09;9.20;99.90
12841;DHT22;6487;48.626;12.486;2024-02-04T12:17:38;9.30;99.90
12841;DHT22;6487;48.626;12.486;2024-02-04T12:20:09;9.10;99.90
12841;DHT22;6487;48.626;12.486;2024-02-04T12:22:42;9.20;99.90
12841;DHT22;6487;48.626;12.486;2024-02-04T12:25:11;9.30;99.90
12841;DHT22;6487;48.626;12.486;2024-02-04T12:27:40;9.30;99.90
12841;DHT22;6487;48.626;12.486;2024-02-04T12:30:09;9.40;99.90
12841;DHT22;6487;48.626;12.486;2024-02-04T12:32:38;9.40;99.90
12841;DHT22;6487;48.626;12.486;2024-02-04T12:35:08;9.30;99.90
12841;DHT22;6487;48.626;12.486;2024-02-04T12:37:50;9.30;99.90
12841;DHT22;6487;48.626;12.486;2024-02-04T12:40:22;9.30;99.90
12841;DHT22;6487;48.626;12.486;2024-02-04T12:42:54;9.30;99.90
12841;DHT22;6487;48.626;12.486;2024-02-04T12:45:26;9.40;99.90
12841;DHT22;6487;48.626;12.486;2024-02-04T12:47:56;9.40;99.90
12841;DHT22;6487;48.626;12.486;2024-02-04T12:50:27;9.50;99.90
12841;DHT22;6487;48.626;12.486;2024-02-04T12:53:06;9.50;99.90
12841;DHT22;6487;48.626;12.486;2024-02-04T12:55:36;9.50;99.90
12841;DHT22;6487;48.626;12.486;2024-02-04T12:58:06;9.50;99.90
12841;DHT22;6487;48.626;12.486;2024-02-04T13:00:37;9.50;99.90
12841;DHT22;6487;48.626;12.486;2024-02-04T13:03:07;9.50;99.90
12841;DHT22;6487;48.626;12.486;2024-02-04T13:05:38;9.50;99.90
12841;DHT22;6487;48.626;12.486;2024-02-04T13:08:06;9.50;99.90
12841;DHT22;6487;48.626;12.486;2024-02-04T13:10:35;9.50;99.90
12841;DHT22;6487;48.626;12.486;2024-02-04T13:13:05;9.50;99.90
12841;DHT22;6487;48.626;12.486;2024-02-04T13:15:37;9.50;99.90
12841;DHT22;6487;48.626;12.486;2024-02-04T13:18:07;9.50;99.90
12841;DHT22;6487;48.626;12.486;2024-02-04T13:20:39;9.50;99.90
12841;DHT22;6487;48.626;12.486;2024-02-04T13:23:10;9.30;99.90
12841;DHT22;6487;48.626;12.486;2024-02-04T13:25:38;9.40;99.90
12841;DHT22;6487;48.626;12.486;2024-02-04T13:28:07;9.40;99.90
12841;DHT22;6487;48.626;12.486;2024-02-04T13:30:36;9.50;99.90
12841;DHT22;6487;48.626;12.486;2024-02-04T13:33:05;9.50;99.90
12841;DHT22;6487;48.626;12.486;2024-02-04T13:35:33;9.50;99.90
12841;DHT22;6487;48.626;12.486;2024-02-04T13:38:04;9.60;99.90
12841;DHT22;6487;48.626;12.486;2024-02-04T13:40:32;9.50;99.90
12841;DHT22;6487;48.626;12.486;2024-02-04T13:43:01;9.40;99.90
12841;DHT22;6487;48.626;12.486;2024-02-04T13:45:29;9.50;99.90
12841;DHT22;6487;48.626;12.486;2024-02-04T13:47:58;9.60;99.90
12841;DHT22;6487;48.626;12.486;2024-02-04T13:50:26;9.60;99.90
12841;DHT22;6487;48.626;12.486;2024-02-04T13:52:55;9.50;99.90
12841;DHT22;6487;48.626;12.486;2024-02-04T13:55:27;9.40;99.90
12841;DHT22;6487;48.626;12.486;2024-02-04T13:57:55;9.40;99.90
12841;DHT22;6487;48.626;12.486;2024-02-04T14:00:23;9.50;99.90
12841;DHT22;6487;48.626;12.486;2024-02-04T14:02:52;9.50;99.90
12841;DHT22;6487;48.626;12.486;2024-02-04T14:05:20;9.40;99.90
12841;DHT22;6487;48.626;12.486;2024-02-04T14:07:50;9.40;99.90
12841;DHT22;6487;48.626;12.486;2024-02-04T14:10:22;9.40;99.90
12841;DHT22;6487;48.626;12.486;2024-02-04T14:12:52;9.40;99.90
12841;DHT22;6487;48.626;12.486;2024-02-04T14:15:20;9.50;99.90
12841;DHT22;6487;48.626;12.486;2024-02-04T14:17:49;9.50;99.90
12841;DHT22;6487;48.626;12.486;2024-02-04T14:20:17;9.40;99.90
12841;DHT22;6487;48.626;12.486;2024-02-04T14:22:46;9.30;99.90
12841;DHT22;6487;48.626;12.486;2024-02-04T14:25:15;9.30;99.90
12841;DHT22;6487;48.626;12.486;2024-02-04T14:27:43;9.40;99.90
12841;DHT22;6487;48.626;12.486;2024-02-04T14:30:14;9.40;99.90
12841;DHT22;6487;48.626;12.486;2024-02-04T14:32:42;9.40;99.90
12841;DHT22;6487;48.626;12.486;2024-02-04T14:35:11;9.50;99.90
12841;DHT22;6487;48.626;12.486;2024-02-04T14:37:42;9.50;99.90
12841;DHT22;6487;48.626;12.486;2024-02-04T14:40:11;9.50;99.90
12841;DHT22;6487;48.626;12.486;2024-02-04T14:42:40;9.60;99.90
12841;DHT22;6487;48.626;12.486;2024-02-04T14:45:09;9.50;99.90
12841;DHT22;6487;48.626;12.486;2024-02-04T14:47:41;9.40;99.90
12841;DHT22;6487;48.626;12.486;2024-02-04T14:50:09;9.50;99.90
12841;DHT22;6487;48.626;12.486;2024-02-04T14:52:40;9.60;99.90
12841;DHT22;6487;48.626;12.486;2024-02-04T14:55:09;9.60;99.90
12841;DHT22;6487;48.626;12.486;2024-02-04T14:57:38;9.50;99.90
12841;DHT22;6487;48.626;12.486;2024-02-04T15:00:07;9.50;99.90
12841;DHT22;6487;48.626;12.486;2024-02-04T15:02:37;9.50;99.90
12841;DHT22;6487;48.626;12.486;2024-02-04T15:05:08;9.50;99.90
12841;DHT22;6487;48.626;12.486;2024-02-04T15:07:38;9.60;99.90
12841;DHT22;6487;48.626;12.486;2024-02-04T15:10:07;9.60;99.90
12841;DHT22;6487;48.626;12.486;2024-02-04T15:12:41;9.60;99.90
12841;DHT22;6487;48.626;12.486;2024-02-04T15:15:10;9.50;99.90
12841;DHT22;6487;48.626;12.486;2024-02-04T15:17:40;9.60;99.90
12841;DHT22;6487;48.626;12.486;2024-02-04T15:20:11;9.40;99.90
12841;DHT22;6487;48.626;12.486;2024-02-04T15:22:45;9.40;99.90
12841;DHT22;6487;48.626;12.486;2024-02-04T15:25:15;9.50;99.90
12841;DHT22;6487;48.626;12.486;2024-02-04T15:27:45;9.60;99.90
12841;DHT22;6487;48.626;12.486;2024-02-04T15:30:14;9.60;99.90
12841;DHT22;6487;48.626;12.486;2024-02-04T15:32:44;9.50;99.90
12841;DHT22;6487;48.626;12.486;2024-02-04T15:35:15;9.50;99.90
12841;DHT22;6487;48.626;12.486;2024-02-04T15:37:44;9.50;99.90
12841;DHT22;6487;48.626;12.486;2024-02-04T15:40:14;9.50;99.90
12841;DHT22;6487;48.626;12.486;2024-02-04T15:42:42;9.50;99.90
12841;DHT22;6487;48.626;12.486;2024-02-04T15:45:10;9.60;99.90
12841;DHT22;6487;48.626;12.486;2024-02-04T15:47:47;9.50;99.90
12841;DHT22;6487;48.626;12.486;2024-02-04T15:50:21;9.40;99.90
12841;DHT22;6487;48.626;12.486;2024-02-04T15:52:50;9.40;99.90
12841;DHT22;6487;48.626;12.486;2024-02-04T15:55:24;9.50;99.90
12841;DHT22;6487;48.626;12.486;2024-02-04T15:57:53;9.50;99.90
12841;DHT22;6487;48.626;12.486;2024-02-04T16:00:22;9.50;99.90
12841;DHT22;6487;48.626;12.486;2024-02-04T16:02:54;9.50;99.90